Time;durP1;ratioP1;P1;durP2;ratioP2;P2;SDS_P1;SDS_P2;PMS_P1;PMS_P2;Temp;Humidity;BMP_temperature;BMP_pressure;BME280_temperature;BME280_humidity;BME280_pressure;Samples;Min_cycle;Max_cycle;Signal;HPM_P1;HPM_P2
2021/07/14 00:04:36;;;;;;;;;;;;;;;;;;;;;
2021/07/14 00:07:12;;;;;;;8.43;3.47;;;15.10;99.90;;;;;;5011077;28;20050;-76
2021/07/14 00:09:40;;;;;;;9.65;2.88;;;15.10;99.90;;;;;;5022193;28;20033;-76
2021/07/14 00:12:09;;;;;;;6.15;3.28;;;15.10;99.90;;;;;;5030382;28;20041;-76
2021/07/14 00:22:37;;;;;;;7.47;2.80;;;15.00;99.90;;;;;;5009482;28;20612;-76
2021/07/14 00:25:11;;;;;;;5.25;2.90;;;14.90;99.90;;;;;;5004176;28;20089;-76
2021/07/14 00:27:40;;;;;;;4.78;2.90;;;14.80;99.90;;;;;;5027485;28;20483;-76
2021/07/14 00:30:10;;;;;;;5.80;3.20;;;14.80;99.90;;;;;;5029992;28;20486;-76
2021/07/14 00:32:36;;;;;;;5.53;2.97;;;14.70;99.90;;;;;;5002797;28;20144;-76
2021/07/14 00:35:08;;;;;;;5.15;3.38;;;14.70;99.90;;;;;;5027817;28;20815;-76
2021/07/14 00:37:38;;;;;;;15.88;4.05;;;14.80;99.90;;;;;;5011728;28;20686;-76
2021/07/14 00:40:09;;;;;;;9.98;3.50;;;14.80;99.90;;;;;;5028643;28;20128;-76
2021/07/14 00:42:45;;;;;;;7.63;3.42;;;14.80;99.90;;;;;;5012011;28;20033;-76
2021/07/14 00:45:16;;;;;;;6.68;3.40;;;14.80;99.90;;;;;;5012257;28;20812;-76
2021/07/14 00:47:49;;;;;;;12.95;4.15;;;14.80;99.90;;;;;;5031136;28;20657;-76
2021/07/14 00:50:15;;;;;;;9.20;3.75;;;14.80;99.90;;;;;;5030624;28;20123;-76
2021/07/14 00:52:44;;;;;;;6.93;3.92;;;14.90;99.90;;;;;;5031139;28;20123;-76
2021/07/14 00:55:19;;;;;;;8.05;4.00;;;14.90;99.90;;;;;;5047976;28;20478;-76
2021/07/14 00:57:45;;;;;;;8.50;4.30;;;14.90;99.90;;;;;;5010191;28;20506;-76
2021/07/14 01:00:17;;;;;;;13.13;6.35;;;14.90;99.90;;;;;;5042225;28;20746;-76
2021/07/14 01:02:51;;;;;;;12.98;6.68;;;14.90;99.90;;;;;;5031062;28;20075;-76
2021/07/14 01:05:47;;;;;;;8.65;7.10;;;15.00;99.90;;;;;;5048437;28;20371;-76
2021/07/14 01:08:27;;;;;;;9.85;6.25;;;15.00;99.90;;;;;;5020645;28;20041;-76
2021/07/14 01:11:06;;;;;;;8.82;6.65;;;14.90;99.90;;;;;;5042564;28;20021;-76
2021/07/14 01:17:21;;;;;;;11.13;6.85;;;14.90;99.90;;;;;;5048130;28;20033;-77
2021/07/14 01:19:58;;;;;;;9.57;6.38;;;14.90;99.90;;;;;;5029004;28;20034;-76
2021/07/14 01:22:56;;;;;;;9.05;5.78;;;14.80;99.90;;;;;;5038469;28;20067;-76
2021/07/14 01:25:57;;;;;;;8.50;4.82;;;14.80;99.90;;;;;;5047515;28;20068;-76
2021/07/14 01:28:27;;;;;;;9.35;4.25;;;14.80;99.90;;;;;;5029001;28;20040;-76
2021/07/14 01:31:07;;;;;;;8.52;3.65;;;14.90;99.90;;;;;;5013899;28;20033;-76
2021/07/14 01:33:38;;;;;;;5.35;3.50;;;14.80;99.90;;;;;;5031003;28;20052;-77
2021/07/14 01:36:15;;;;;;;6.55;4.13;;;14.80;99.90;;;;;;5029840;28;20036;-76
2021/07/14 01:38:47;;;;;;;7.25;3.72;;;14.80;99.90;;;;;;5047142;28;20040;-76
2021/07/14 01:41:20;;;;;;;;;;;14.70;99.90;;;;;;5030258;28;20086;-76
2021/07/14 01:43:57;;;;;;;;;;;14.70;99.90;;;;;;5031692;28;20453;-76
2021/07/14 01:46:32;;;;;;;6.38;4.18;;;14.70;99.90;;;;;;5040494;28;19962;-76
2021/07/14 01:49:06;;;;;;;8.38;3.92;;;14.70;99.90;;;;;;5031465;28;20482;-76
2021/07/14 01:52:16;;;;;;;7.25;4.45;;;14.70;99.90;;;;;;5047662;28;20056;-76
2021/07/14 01:54:45;;;;;;;6.60;3.67;;;14.70;99.90;;;;;;5020299;28;20163;-76
2021/07/14 01:57:14;;;;;;;9.65;3.42;;;14.60;99.90;;;;;;5028790;28;20161;-76
2021/07/14 01:59:42;;;;;;;6.30;4.00;;;14.60;99.90;;;;;;5043892;28;20125;-76
2021/07/14 02:02:13;;;;;;;6.15;3.42;;;14.60;99.90;;;;;;5020292;28;20029;-76
2021/07/14 02:04:48;;;;;;;8.52;3.63;;;14.60;99.90;;;;;;5010501;28;20128;-76
2021/07/14 02:07:27;;;;;;;6.68;2.50;;;14.70;99.90;;;;;;5037477;28;20075;-76
2021/07/14 02:09:54;;;;;;;6.30;3.28;;;14.70;99.90;;;;;;5029627;28;20043;-76
2021/07/14 02:12:26;;;;;;;8.70;3.33;;;14.60;99.90;;;;;;5029459;28;20116;-77
2021/07/14 02:15:07;;;;;;;5.43;2.85;;;14.50;99.90;;;;;;5030161;28;20041;-76
2021/07/14 02:18:00;;;;;;;6.43;2.78;;;14.50;99.90;;;;;;5046953;28;20034;-76
2021/07/14 02:20:48;;;;;;;7.55;2.95;;;14.50;99.90;;;;;;5051862;28;20044;-76
2021/07/14 02:23:25;;;;;;;7.75;3.40;;;14.60;99.90;;;;;;5033380;28;20090;-76
2021/07/14 02:26:01;;;;;;;7.05;3.65;;;14.60;99.90;;;;;;5033029;28;20080;-76
2021/07/14 02:28:35;;;;;;;9.23;4.30;;;14.70;99.90;;;;;;5033798;28;20037;-77
2021/07/14 02:31:04;;;;;;;10.27;6.15;;;14.70;99.90;;;;;;5033369;28;20471;-77
2021/07/14 02:33:32;;;;;;;7.68;4.88;;;14.60;99.90;;;;;;5033777;28;20039;-76
2021/07/14 02:36:02;;;;;;;9.05;5.28;;;14.70;99.90;;;;;;5033290;28;20084;-76
2021/07/14 02:38:43;;;;;;;8.20;4.60;;;14.60;99.90;;;;;;5032883;28;20037;-76
2021/07/14 02:41:44;;;;;;;8.02;5.00;;;14.60;99.90;;;;;;5032902;28;20041;-76
2021/07/14 02:44:17;;;;;;;8.10;4.97;;;14.50;99.90;;;;;;5050427;28;20136;-76
2021/07/14 02:46:48;;;;;;;8.15;4.68;;;14.50;99.90;;;;;;5051021;28;20048;-76
2021/07/14 02:49:32;;;;;;;10.07;5.28;;;14.60;99.90;;;;;;5051721;28;20048;-76
2021/07/14 02:52:03;;;;;;;10.48;6.18;;;14.60;99.90;;;;;;5045121;28;20049;-76
2021/07/14 02:54:37;;;;;;;8.90;5.78;;;14.50;99.90;;;;;;5023581;28;20040;-76
2021/07/14 02:57:11;;;;;;;10.60;5.63;;;14.60;99.90;;;;;;5034136;28;20417;-76
2021/07/14 02:59:44;;;;;;;9.23;5.50;;;14.60;99.90;;;;;;5047717;28;20060;-76
2021/07/14 03:02:21;;;;;;;11.40;5.88;;;14.60;99.90;;;;;;5036366;28;20083;-76
2021/07/14 03:04:59;;;;;;;9.38;5.97;;;14.70;99.90;;;;;;5042342;28;20076;-76
2021/07/14 03:07:26;;;;;;;8.13;5.45;;;14.70;99.90;;;;;;5049100;28;20029;-76
2021/07/14 03:09:54;;;;;;;10.50;6.03;;;14.70;99.90;;;;;;5042995;28;20051;-77
2021/07/14 03:12:23;;;;;;;7.97;5.38;;;14.70;99.90;;;;;;5038177;28;20067;-76
2021/07/14 03:15:04;;;;;;;9.65;5.55;;;14.70;99.90;;;;;;5033167;28;20036;-76
2021/07/14 03:17:34;;;;;;;10.70;5.30;;;14.60;99.90;;;;;;5060330;28;20079;-77
2021/07/14 03:20:05;;;;;;;7.32;5.10;;;14.60;99.90;;;;;;5064901;28;20044;-75
2021/07/14 03:22:35;;;;;;;9.88;4.80;;;14.60;99.90;;;;;;5058393;28;20863;-75
2021/07/14 03:25:07;;;;;;;8.50;5.15;;;14.60;99.90;;;;;;5063753;28;20040;-76
2021/07/14 03:27:35;;;;;;;;;;;14.50;99.90;;;;;;5031177;28;20017;-76
2021/07/14 03:30:08;;;;;;;9.10;4.80;;;14.50;99.90;;;;;;5045491;28;20031;-76
2021/07/14 03:32:34;;;;;;;9.98;5.88;;;14.50;99.90;;;;;;5033346;28;20037;-76
2021/07/14 03:35:04;;;;;;;9.48;6.10;;;14.40;99.90;;;;;;5029881;28;20108;-76
2021/07/14 03:37:33;;;;;;;11.32;5.50;;;14.30;99.90;;;;;;5035566;28;20083;-76
2021/07/14 03:40:09;;;;;;;9.98;5.55;;;14.30;99.90;;;;;;5014843;28;20045;-76
2021/07/14 03:42:41;;;;;;;8.88;5.85;;;14.30;99.90;;;;;;5022535;28;20116;-76
2021/07/14 03:45:10;;;;;;;;;;;14.30;99.90;;;;;;5016357;28;20080;-76
2021/07/14 03:47:39;;;;;;;9.32;4.88;;;14.30;99.90;;;;;;5030457;28;20232;-76
2021/07/14 03:50:05;;;;;;;12.35;4.35;;;14.30;99.90;;;;;;5030509;28;20065;-76
2021/07/14 03:52:33;;;;;;;10.10;4.18;;;14.30;99.90;;;;;;5029732;28;20037;-76
2021/07/14 03:55:08;;;;;;;7.70;4.80;;;14.40;99.90;;;;;;5029893;28;20046;-76
2021/07/14 03:57:34;;;;;;;11.80;5.38;;;14.50;99.90;;;;;;5019413;28;20037;-76
2021/07/14 04:00:00;;;;;;;9.20;4.47;;;14.50;99.90;;;;;;5013896;28;20171;-76
2021/07/14 04:02:28;;;;;;;8.18;4.53;;;14.50;99.90;;;;;;5018162;28;20033;-76
2021/07/14 04:04:59;;;;;;;8.95;4.80;;;14.50;99.90;;;;;;5010153;28;20890;-77
2021/07/14 04:07:29;;;;;;;6.60;4.63;;;14.60;99.90;;;;;;5029555;28;20034;-76
2021/07/14 04:09:57;;;;;;;8.60;3.80;;;14.60;99.90;;;;;;5028680;28;20033;-76
2021/07/14 04:12:22;;;;;;;6.85;3.28;;;14.50;99.90;;;;;;5020390;28;20030;-76
2021/07/14 04:14:49;;;;;;;6.05;4.18;;;14.50;99.90;;;;;;5028986;28;20038;-76
2021/07/14 04:17:14;;;;;;;5.78;3.70;;;14.50;99.90;;;;;;5027100;28;20041;-76
2021/07/14 04:19:42;;;;;;;6.07;3.80;;;14.50;99.90;;;;;;5011085;28;20394;-76
2021/07/14 04:22:09;;;;;;;6.82;4.13;;;14.40;99.90;;;;;;5013791;28;20033;-77
2021/07/14 04:24:39;;;;;;;7.85;4.72;;;14.40;99.90;;;;;;5024514;28;20121;-77
2021/07/14 04:27:07;;;;;;;10.10;5.47;;;14.40;99.90;;;;;;5023687;28;20038;-76
2021/07/14 04:29:32;;;;;;;11.32;6.93;;;14.30;99.90;;;;;;5044654;28;20041;-76
2021/07/14 04:31:58;;;;;;;13.32;8.73;;;14.30;99.90;;;;;;5038331;28;20034;-76
2021/07/14 04:34:24;;;;;;;12.10;7.47;;;14.20;99.90;;;;;;5028575;28;20701;-76
2021/07/14 04:36:50;;;;;;;8.80;4.47;;;14.20;99.90;;;;;;5038617;28;20026;-76
2021/07/14 04:39:16;;;;;;;10.45;3.25;;;14.20;99.90;;;;;;5032669;28;20040;-76
2021/07/14 04:41:42;;;;;;;5.13;2.65;;;14.10;99.90;;;;;;5029445;28;20108;-76
2021/07/14 04:44:12;;;;;;;8.68;3.05;;;14.00;99.90;;;;;;5027647;28;20125;-76
2021/07/14 04:46:40;;;;;;;14.25;11.30;;;14.00;99.90;;;;;;5017051;28;20566;-76
2021/07/14 04:49:06;;;;;;;15.23;11.75;;;14.10;99.90;;;;;;5019377;28;20649;-76
2021/07/14 04:51:32;;;;;;;16.88;10.77;;;14.10;99.90;;;;;;5028362;28;20136;-76
2021/07/14 04:53:58;;;;;;;12.65;8.60;;;14.20;99.90;;;;;;5028901;28;20040;-76
2021/07/14 04:56:23;;;;;;;11.40;6.93;;;14.20;99.90;;;;;;5025457;28;20041;-76
2021/07/14 04:58:49;;;;;;;10.73;6.03;;;14.30;99.90;;;;;;5013544;28;20034;-76
2021/07/14 05:01:17;;;;;;;9.55;7.30;;;14.20;99.90;;;;;;5022345;28;20037;-76
2021/07/14 05:03:47;;;;;;;8.70;6.05;;;14.20;99.90;;;;;;5024567;28;20669;-76
2021/07/14 05:06:17;;;;;;;8.05;6.15;;;14.30;99.90;;;;;;5025521;28;20037;-76
2021/07/14 05:08:44;;;;;;;10.50;7.00;;;14.30;99.90;;;;;;5023080;28;20079;-76
2021/07/14 05:11:11;;;;;;;9.48;6.70;;;14.30;99.90;;;;;;5026491;28;20037;-76
2021/07/14 05:13:37;;;;;;;11.57;7.50;;;14.30;99.90;;;;;;5028931;28;20025;-76
2021/07/14 05:16:07;;;;;;;16.88;10.95;;;14.30;99.90;;;;;;5040454;28;20386;-76
2021/07/14 05:18:33;;;;;;;25.83;22.20;;;14.30;99.90;;;;;;5039446;28;20366;-76
2021/07/14 05:21:00;;;;;;;11.70;6.35;;;14.30;99.90;;;;;;5026042;28;20029;-76
2021/07/14 05:23:25;;;;;;;8.68;4.38;;;14.20;99.90;;;;;;5029031;28;20052;-76
2021/07/14 05:25:51;;;;;;;3.70;1.13;;;14.20;99.90;;;;;;5033762;28;20467;-76
2021/07/14 05:28:17;;;;;;;6.60;1.33;;;14.20;99.90;;;;;;5027686;28;20048;-76
2021/07/14 05:30:45;;;;;;;3.92;0.90;;;14.10;99.90;;;;;;5013397;28;20108;-76
2021/07/14 05:33:11;;;;;;;4.20;1.90;;;14.10;99.90;;;;;;5029453;28;20033;-76
2021/07/14 05:35:42;;;;;;;5.72;3.30;;;14.00;99.90;;;;;;5025009;28;20040;-76
2021/07/14 05:38:08;;;;;;;9.00;6.70;;;14.10;99.90;;;;;;5024099;28;20048;-76
2021/07/14 05:40:39;;;;;;;13.77;9.38;;;14.20;99.90;;;;;;5027660;28;20418;-76
2021/07/14 05:43:04;;;;;;;10.13;7.25;;;14.20;99.90;;;;;;5031165;28;20087;-76
2021/07/14 05:45:30;;;;;;;9.65;3.85;;;14.20;99.90;;;;;;5033242;28;20037;-76
2021/07/14 05:47:58;;;;;;;7.68;2.55;;;14.30;99.90;;;;;;5027580;28;20082;-76
2021/07/14 05:50:24;;;;;;;5.38;3.35;;;14.20;99.90;;;;;;5027311;28;20364;-76
2021/07/14 05:52:50;;;;;;;2.20;1.20;;;14.20;99.90;;;;;;5022232;28;20041;-76
2021/07/14 05:55:15;;;;;;;2.72;0.90;;;14.30;99.90;;;;;;5028297;28;20028;-76
2021/07/14 05:57:41;;;;;;;2.95;0.90;;;14.30;99.90;;;;;;5012546;28;20046;-76
2021/07/14 06:00:08;;;;;;;5.13;1.13;;;14.30;99.90;;;;;;5012361;28;20034;-76
2021/07/14 06:02:34;;;;;;;4.43;1.15;;;14.30;99.90;;;;;;5026488;28;20487;-76
2021/07/14 06:05:00;;;;;;;2.80;0.90;;;14.30;99.90;;;;;;5027511;28;20120;-76
2021/07/14 06:07:25;;;;;;;3.90;1.20;;;14.40;99.90;;;;;;5030699;28;20136;-76
2021/07/14 06:09:51;;;;;;;4.13;2.15;;;14.50;99.90;;;;;;5027019;28;20429;-76
2021/07/14 06:12:16;;;;;;;3.90;2.38;;;14.50;99.90;;;;;;5024163;28;20046;-76
2021/07/14 06:14:44;;;;;;;3.88;2.60;;;14.60;99.90;;;;;;5022846;28;20026;-76
2021/07/14 06:17:10;;;;;;;4.13;2.53;;;14.70;99.90;;;;;;5017785;28;20395;-76
2021/07/14 06:19:36;;;;;;;6.80;3.60;;;14.70;99.90;;;;;;5023620;28;20030;-76
2021/07/14 06:22:02;;;;;;;6.18;2.47;;;14.70;99.90;;;;;;5025084;28;20071;-76
2021/07/14 06:24:28;;;;;;;4.47;2.13;;;14.80;99.90;;;;;;5027067;28;20025;-76
2021/07/14 06:26:55;;;;;;;4.25;2.00;;;14.90;99.90;;;;;;5022525;28;20404;-76
2021/07/14 06:29:22;;;;;;;5.78;2.60;;;15.00;99.90;;;;;;5013001;28;20109;-76
2021/07/14 06:31:47;;;;;;;5.68;2.40;;;15.10;99.90;;;;;;5020139;28;20049;-76
2021/07/14 06:34:13;;;;;;;5.22;2.25;;;15.10;99.90;;;;;;5021930;28;20049;-76
2021/07/14 06:36:39;;;;;;;4.70;2.10;;;15.10;99.90;;;;;;5026266;28;20502;-76
2021/07/14 06:39:05;;;;;;;4.57;2.58;;;15.20;99.90;;;;;;5022913;28;20033;-76
2021/07/14 06:41:31;;;;;;;6.05;2.80;;;15.30;99.90;;;;;;5022741;28;20504;-76
2021/07/14 06:43:59;;;;;;;8.07;3.55;;;15.40;99.90;;;;;;5024524;28;20037;-76
2021/07/14 06:46:25;;;;;;;4.15;2.10;;;15.50;99.90;;;;;;5027833;28;20061;-76
2021/07/14 06:48:51;;;;;;;5.78;2.30;;;15.60;99.90;;;;;;5038931;28;20033;-76
2021/07/14 06:51:17;;;;;;;5.05;2.17;;;15.70;99.90;;;;;;5017972;28;20041;-76
2021/07/14 06:53:43;;;;;;;4.38;1.67;;;15.60;99.90;;;;;;5029584;28;20025;-76
2021/07/14 06:56:09;;;;;;;3.00;1.90;;;15.70;99.90;;;;;;5029278;28;20099;-76
2021/07/14 06:58:36;;;;;;;3.92;1.83;;;15.80;99.90;;;;;;5022905;28;20034;-76
2021/07/14 07:01:03;;;;;;;2.70;1.50;;;16.00;99.90;;;;;;5022913;28;20046;-76
2021/07/14 07:03:29;;;;;;;4.97;1.30;;;16.10;99.90;;;;;;5039277;28;20049;-76
2021/07/14 07:05:55;;;;;;;3.28;1.50;;;16.20;99.90;;;;;;5021818;28;20073;-76
2021/07/14 07:08:21;;;;;;;3.17;1.67;;;16.30;99.90;;;;;;5026911;28;20491;-76
2021/07/14 07:10:47;;;;;;;7.18;1.90;;;16.30;99.90;;;;;;5027516;28;20033;-76
2021/07/14 07:13:16;;;;;;;4.32;0.93;;;16.30;99.90;;;;;;5029970;28;20099;-76
2021/07/14 07:15:43;;;;;;;1.50;0.60;;;16.50;99.90;;;;;;5023839;28;20076;-76
2021/07/14 07:18:09;;;;;;;2.25;0.85;;;16.50;99.90;;;;;;5023340;28;20545;-76
2021/07/14 07:20:35;;;;;;;1.42;0.70;;;16.40;99.90;;;;;;5025205;28;20025;-76
2021/07/14 07:23:00;;;;;;;2.35;0.93;;;16.40;99.90;;;;;;5027083;28;20566;-76
2021/07/14 07:25:26;;;;;;;2.83;0.90;;;16.20;99.90;;;;;;5027743;28;20029;-77
2021/07/14 07:27:54;;;;;;;8.35;1.02;;;16.20;99.90;;;;;;5027340;28;20037;-76
2021/07/14 07:30:20;;;;;;;3.65;0.70;;;16.00;99.90;;;;;;5027768;28;20481;-76
2021/07/14 07:32:45;;;;;;;3.65;0.90;;;16.10;99.90;;;;;;5041970;28;20044;-76
2021/07/14 07:35:12;;;;;;;2.65;0.70;;;15.80;99.90;;;;;;5053936;28;20040;-76
2021/07/14 07:37:37;;;;;;;3.75;1.02;;;16.00;99.90;;;;;;5027150;28;20471;-76
2021/07/14 07:40:05;;;;;;;3.28;1.13;;;16.00;99.90;;;;;;5035232;28;20079;-76
2021/07/14 07:42:31;;;;;;;3.80;1.58;;;15.90;99.90;;;;;;5056620;28;20041;-76
2021/07/14 07:44:57;;;;;;;3.33;0.63;;;16.00;99.90;;;;;;5033418;28;20793;-76
2021/07/14 07:47:23;;;;;;;2.00;0.60;;;16.00;99.90;;;;;;5037622;28;20037;-76
2021/07/14 07:49:49;;;;;;;3.22;0.70;;;16.00;99.90;;;;;;5054249;28;20032;-76
2021/07/14 07:52:15;;;;;;;2.63;0.80;;;16.00;99.90;;;;;;5031668;28;20037;-76
2021/07/14 07:54:42;;;;;;;1.92;0.80;;;16.20;99.90;;;;;;5026238;28;20063;-76
2021/07/14 07:57:08;;;;;;;2.15;0.93;;;16.30;99.90;;;;;;5051229;28;20108;-76
2021/07/14 07:59:35;;;;;;;4.28;1.20;;;16.40;99.90;;;;;;5031708;28;20079;-76
2021/07/14 08:02:02;;;;;;;2.65;1.17;;;16.60;99.90;;;;;;5032431;28;20044;-76
2021/07/14 08:04:28;;;;;;;6.03;1.98;;;16.70;99.90;;;;;;5028476;28;20026;-76
2021/07/14 08:06:53;;;;;;;6.90;1.50;;;16.90;99.90;;;;;;5034750;28;20045;-76
2021/07/14 08:09:19;;;;;;;10.43;1.70;;;17.10;99.90;;;;;;5036095;28;20028;-76
2021/07/14 08:11:45;;;;;;;3.72;0.90;;;17.40;99.90;;;;;;5035984;28;20071;-76
2021/07/14 08:14:11;;;;;;;2.75;0.80;;;17.40;99.90;;;;;;5022130;28;20029;-76
2021/07/14 08:16:36;;;;;;;8.27;0.88;;;17.40;99.90;;;;;;5025480;28;20037;-76
2021/07/14 08:19:03;;;;;;;1.60;0.60;;;17.40;99.90;;;;;;5023217;28;20648;-76
2021/07/14 08:21:28;;;;;;;3.03;0.73;;;17.40;99.90;;;;;;5033987;28;20044;-76
2021/07/14 08:23:54;;;;;;;2.25;0.75;;;17.50;99.90;;;;;;5026122;28;20029;-76
2021/07/14 08:26:19;;;;;;;1.23;0.68;;;17.50;99.90;;;;;;5019916;28;20056;-76
2021/07/14 08:28:45;;;;;;;2.15;0.60;;;17.60;99.90;;;;;;5032133;28;20139;-76
2021/07/14 08:31:11;;;;;;;2.47;0.80;;;17.80;99.90;;;;;;5031738;28;20390;-76
2021/07/14 08:33:37;;;;;;;3.78;0.77;;;17.90;99.90;;;;;;5024826;28;20068;-76
2021/07/14 08:36:03;;;;;;;2.38;0.70;;;17.90;99.90;;;;;;5038158;28;20067;-76
2021/07/14 08:38:29;;;;;;;2.10;0.80;;;18.00;99.90;;;;;;5030481;28;20033;-76
2021/07/14 08:40:58;;;;;;;2.72;0.70;;;18.20;99.90;;;;;;5031226;28;20033;-76
2021/07/14 08:43:29;;;;;;;3.53;0.70;;;18.60;99.90;;;;;;5030455;28;20041;-76
2021/07/14 08:45:58;;;;;;;2.33;0.60;;;18.40;99.90;;;;;;5048871;28;20029;-76
2021/07/14 08:48:24;;;;;;;2.28;0.75;;;18.70;99.90;;;;;;5021425;28;20029;-76
2021/07/14 08:50:52;;;;;;;1.55;0.60;;;19.00;99.90;;;;;;5029281;28;20150;-76
2021/07/14 08:53:20;;;;;;;1.98;0.60;;;19.10;99.90;;;;;;5021777;28;20029;-76
2021/07/14 08:55:47;;;;;;;1.00;0.45;;;19.10;99.90;;;;;;5043738;28;20182;-76
2021/07/14 08:58:16;;;;;;;1.13;0.60;;;19.00;99.90;;;;;;5018515;28;20037;-76
2021/07/14 09:00:42;;;;;;;1.55;0.43;;;19.00;99.90;;;;;;5027834;28;20035;-76
2021/07/14 09:03:08;;;;;;;1.50;0.50;;;19.00;99.90;;;;;;5028886;28;20037;-76
2021/07/14 09:05:35;;;;;;;1.10;0.50;;;19.00;99.90;;;;;;5024030;28;20728;-76
2021/07/14 09:08:01;;;;;;;0.93;0.50;;;19.10;99.90;;;;;;5020342;28;20028;-76
2021/07/14 09:10:27;;;;;;;3.20;0.70;;;18.90;99.90;;;;;;5041454;28;20025;-76
2021/07/14 09:12:58;;;;;;;1.58;0.60;;;19.20;99.90;;;;;;5025174;28;20038;-76
2021/07/14 09:15:28;;;;;;;1.42;0.50;;;19.30;99.90;;;;;;5026299;28;20501;-76
2021/07/14 09:17:56;;;;;;;1.33;0.60;;;19.20;99.90;;;;;;5036913;28;20823;-76
2021/07/14 09:20:25;;;;;;;2.45;0.65;;;19.00;99.90;;;;;;5034125;28;20090;-76
2021/07/14 09:23:07;;;;;;;1.73;0.60;;;19.10;99.90;;;;;;5020556;28;20060;-76
2021/07/14 09:25:57;;;;;;;2.13;0.60;;;19.40;99.90;;;;;;5019213;28;20052;-76
2021/07/14 09:28:27;;;;;;;1.17;0.50;;;19.80;99.90;;;;;;5037826;28;20025;-76
2021/07/14 09:31:13;;;;;;;1.15;0.50;;;19.90;99.90;;;;;;5020017;28;20148;-76
2021/07/14 09:33:43;;;;;;;0.95;0.52;;;20.00;99.90;;;;;;5032941;28;20037;-76
2021/07/14 09:36:09;;;;;;;1.25;0.50;;;20.30;99.90;;;;;;5016844;28;20047;-76
2021/07/14 09:38:39;;;;;;;1.45;0.50;;;20.30;99.90;;;;;;5023750;28;20809;-76
2021/07/14 09:41:11;;;;;;;1.85;0.70;;;20.40;99.90;;;;;;5039722;28;20149;-76
2021/07/14 09:43:42;;;;;;;1.50;0.60;;;20.50;99.90;;;;;;5020772;28;20053;-76
2021/07/14 09:46:16;;;;;;;1.35;0.50;;;19.80;99.90;;;;;;5022911;28;20624;-76
2021/07/14 09:48:46;;;;;;;1.70;0.40;;;20.00;99.90;;;;;;5027514;28;20045;-76
2021/07/14 09:51:14;;;;;;;2.75;0.80;;;20.10;99.90;;;;;;5027164;28;20055;-76
2021/07/14 09:53:42;;;;;;;2.05;0.70;;;20.30;99.90;;;;;;5021588;28;20035;-77
2021/07/14 09:56:16;;;;;;;1.70;0.68;;;20.20;99.90;;;;;;5024795;28;20045;-76
2021/07/14 09:58:43;;;;;;;1.95;0.65;;;20.30;99.90;;;;;;5014433;28;20043;-76
2021/07/14 10:01:15;;;;;;;0.68;0.40;;;20.10;99.90;;;;;;5019933;28;20038;-76
2021/07/14 10:03:51;;;;;;;1.23;0.50;;;20.00;99.90;;;;;;5015879;28;20171;-76
2021/07/14 10:06:19;;;;;;;3.65;0.70;;;20.00;99.90;;;;;;5022362;28;20076;-76
2021/07/14 10:08:48;;;;;;;1.75;0.70;;;19.90;99.90;;;;;;5032308;28;20536;-76
2021/07/14 10:11:24;;;;;;;1.15;0.60;;;19.90;99.90;;;;;;5030365;28;20160;-76
2021/07/14 10:14:06;;;;;;;2.92;0.77;;;19.80;99.90;;;;;;5027009;28;20033;-76
2021/07/14 10:16:40;;;;;;;2.25;0.77;;;19.80;99.90;;;;;;5043523;28;20065;-76
2021/07/14 10:19:09;;;;;;;6.35;1.17;;;19.80;99.90;;;;;;5022536;28;20036;-76
2021/07/14 10:21:40;;;;;;;3.63;0.88;;;19.60;99.90;;;;;;5022648;28;20041;-76
2021/07/14 10:24:10;;;;;;;2.45;1.38;;;19.40;99.90;;;;;;5028146;28;20371;-76
2021/07/14 10:26:38;;;;;;;2.67;1.10;;;19.30;99.90;;;;;;5043131;28;20082;-76
2021/07/14 10:29:05;;;;;;;3.55;1.42;;;19.20;99.90;;;;;;5052318;28;20068;-76
2021/07/14 10:31:31;;;;;;;4.45;0.90;;;19.20;99.90;;;;;;5019464;28;20045;-76
2021/07/14 10:33:57;;;;;;;1.55;0.73;;;19.30;99.90;;;;;;5046029;28;20045;-76
2021/07/14 10:36:29;;;;;;;3.08;0.88;;;19.10;99.90;;;;;;5038737;28;20033;-76
2021/07/14 10:38:59;;;;;;;1.55;0.60;;;19.20;99.90;;;;;;5033483;28;20742;-76
2021/07/14 10:41:28;;;;;;;2.75;0.70;;;19.30;99.90;;;;;;5039260;28;20044;-76
2021/07/14 10:43:55;;;;;;;2.03;0.73;;;19.30;99.90;;;;;;5022568;28;20083;-76
2021/07/14 10:46:23;;;;;;;2.08;0.90;;;19.40;99.90;;;;;;5022386;28;20677;-76
2021/07/14 10:48:51;;;;;;;1.73;0.55;;;19.30;99.90;;;;;;5048040;28;20163;-76
2021/07/14 10:51:18;;;;;;;2.50;0.88;;;19.40;99.90;;;;;;5029721;28;20032;-76
2021/07/14 10:53:46;;;;;;;1.75;0.77;;;19.30;99.90;;;;;;5042600;28;20029;-76
2021/07/14 10:56:15;;;;;;;2.15;0.90;;;19.30;99.90;;;;;;5031487;28;20812;-76
2021/07/14 10:58:42;;;;;;;1.83;0.60;;;19.30;99.90;;;;;;5027321;28;20065;-76
2021/07/14 11:01:09;;;;;;;1.63;0.90;;;19.20;99.90;;;;;;5030852;28;20079;-76
2021/07/14 11:03:37;;;;;;;6.72;1.30;;;19.20;99.90;;;;;;5025090;28;20128;-76
2021/07/14 11:06:04;;;;;;;1.63;0.90;;;18.90;99.90;;;;;;5042716;28;20597;-76
2021/07/14 11:08:42;;;;;;;2.00;0.70;;;18.90;99.90;;;;;;5042984;28;20059;-76
2021/07/14 11:11:08;;;;;;;2.13;0.80;;;19.00;99.90;;;;;;5036722;28;20032;-76
2021/07/14 11:13:37;;;;;;;2.92;0.80;;;19.00;99.90;;;;;;5031149;28;20280;-76
2021/07/14 11:16:30;;;;;;;1.80;0.80;;;18.90;99.90;;;;;;5027562;28;20083;-76
2021/07/14 11:19:01;;;;;;;1.42;0.60;;;19.00;99.90;;;;;;5037730;28;20065;-76
2021/07/14 11:21:46;;;;;;;3.53;0.60;;;19.00;99.90;;;;;;5047972;28;20087;-76
2021/07/14 11:24:11;;;;;;;2.15;0.63;;;19.10;99.90;;;;;;5045285;28;20040;-76
2021/07/14 11:26:37;;;;;;;1.50;0.63;;;19.10;99.90;;;;;;5023305;28;20356;-76
2021/07/14 11:29:15;;;;;;;1.50;0.70;;;19.00;99.90;;;;;;5027412;28;20095;-76
2021/07/14 11:31:42;;;;;;;4.40;0.55;;;19.00;99.90;;;;;;5029094;28;20416;-76
2021/07/14 11:34:30;;;;;;;2.53;1.05;;;19.10;99.90;;;;;;5021488;28;20406;-76
2021/07/14 11:36:56;;;;;;;1.70;0.70;;;19.10;99.90;;;;;;5025112;28;20041;-76
2021/07/14 11:39:29;;;;;;;3.53;0.60;;;19.20;99.90;;;;;;5029486;28;20037;-76
2021/07/14 11:42:21;;;;;;;1.42;0.70;;;19.10;99.90;;;;;;5027824;28;20037;-76
2021/07/14 11:44:52;;;;;;;1.58;0.60;;;19.10;99.90;;;;;;5015279;28;20494;-76
2021/07/14 11:47:34;;;;;;;2.50;0.80;;;19.10;99.90;;;;;;5032708;28;20045;-76
2021/07/14 11:50:00;;;;;;;3.67;0.80;;;19.30;99.90;;;;;;5030956;28;20033;-76
2021/07/14 11:52:46;;;;;;;2.50;0.73;;;19.30;99.90;;;;;;5025529;28;20044;-76
2021/07/14 11:55:24;;;;;;;2.70;0.70;;;19.40;99.90;;;;;;5021760;28;20554;-76
2021/07/14 11:57:54;;;;;;;1.75;0.68;;;19.50;99.90;;;;;;5026461;28;20040;-76
2021/07/14 12:00:34;;;;;;;1.63;0.60;;;19.50;99.90;;;;;;5024196;28;20029;-76
2021/07/14 12:03:03;;;;;;;1.60;0.60;;;19.60;99.90;;;;;;5017596;28;20037;-76
2021/07/14 12:05:37;;;;;;;2.10;0.60;;;19.60;99.90;;;;;;5028474;28;20036;-75
2021/07/14 12:08:11;;;;;;;2.47;0.70;;;19.60;99.90;;;;;;5028899;28;20032;-76
2021/07/14 12:10:39;;;;;;;2.72;0.60;;;19.30;99.90;;;;;;5044147;28;20056;-76
2021/07/14 12:13:08;;;;;;;1.98;0.70;;;19.20;99.90;;;;;;5027637;28;20087;-76
2021/07/14 12:15:54;;;;;;;1.30;0.63;;;19.20;99.90;;;;;;5030295;28;20083;-76
2021/07/14 12:18:19;;;;;;;2.08;0.80;;;19.10;99.90;;;;;;5020147;28;20052;-76
2021/07/14 12:20:52;;;;;;;1.33;0.70;;;19.00;99.90;;;;;;5017547;28;20026;-76
2021/07/14 12:23:19;;;;;;;3.20;0.70;;;18.80;99.90;;;;;;5026098;28;20590;-76
2021/07/14 12:25:46;;;;;;;2.33;0.73;;;18.70;99.90;;;;;;5020288;28;20033;-76
2021/07/14 12:28:13;;;;;;;1.67;0.57;;;18.70;99.90;;;;;;5024425;28;20037;-76
2021/07/14 12:30:45;;;;;;;1.77;0.70;;;18.70;99.90;;;;;;5019314;28;20033;-76
2021/07/14 12:33:11;;;;;;;3.05;0.57;;;18.50;99.90;;;;;;5026951;28;20543;-76
2021/07/14 12:35:42;;;;;;;1.02;0.50;;;18.40;99.90;;;;;;5037966;28;20398;-76
2021/07/14 12:38:11;;;;;;;1.88;0.50;;;18.40;99.90;;;;;;5027042;28;20128;-76
2021/07/14 12:40:45;;;;;;;0.90;0.40;;;18.50;99.90;;;;;;5018263;28;20024;-76
2021/07/14 12:43:13;;;;;;;1.35;0.55;;;18.50;99.90;;;;;;5029775;28;20044;-76
2021/07/14 12:45:41;;;;;;;1.45;0.50;;;18.50;99.90;;;;;;5034100;28;20026;-76
2021/07/14 12:48:10;;;;;;;1.38;0.60;;;18.50;99.90;;;;;;5021225;28;20034;-76
2021/07/14 12:50:39;;;;;;;1.98;0.40;;;18.60;99.90;;;;;;5044229;28;20025;-76
2021/07/14 12:53:05;;;;;;;1.70;0.45;;;18.50;99.90;;;;;;5028237;28;20033;-76
2021/07/14 12:55:33;;;;;;;2.42;0.40;;;18.60;99.90;;;;;;5025862;28;20467;-76
2021/07/14 12:58:08;;;;;;;1.00;0.60;;;18.70;99.90;;;;;;5021924;28;20060;-76
2021/07/14 13:00:36;;;;;;;0.40;0.30;;;18.80;99.90;;;;;;5039083;28;20034;-76
2021/07/14 13:03:05;;;;;;;1.23;0.50;;;18.80;99.90;;;;;;5028529;28;20742;-76
2021/07/14 13:05:32;;;;;;;0.80;0.40;;;18.80;99.90;;;;;;5029460;28;20296;-76
2021/07/14 13:08:35;;;;;;;2.28;0.30;;;18.70;99.90;;;;;;5025259;28;20044;-76
2021/07/14 13:11:05;;;;;;;1.27;0.30;;;18.80;99.90;;;;;;5023816;28;20127;-76
2021/07/14 13:13:33;;;;;;;0.95;0.30;;;18.80;99.90;;;;;;5028830;28;20025;-76
2021/07/14 13:18:38;;;;;;;1.20;0.30;;;18.70;99.90;;;;;;5035394;23;20061;-76
2021/07/14 13:21:04;;;;;;;1.40;0.30;;;18.70;99.90;;;;;;5027208;28;20695;-76